메인 페이지
METAR-TAF:

METAR-TAF

공항 :

플로리아노폴리스, 산타카타리나, 브라질

위도: 27-40S, 경도: 048-33W, 고도: 5m

현재 날씨관측

예보는 16분 전, 23:00시(UTC)에 발표되었습니다.
서북서5kt
온도 14°C
습도 100%
기압 1024 hPa
시정: 0800m
안개,

METAR: SBFL 202300Z 30005KT 0800 R14/1100N R32/1600U FG VV002 14/14 Q1024

시각: 20:16 (23:16 UTC)

예보

예보는 4 시간 16분 전, 19:00시(UTC)에 발표되었습니다.
예보 대상 시간: 20일 20시부터 21일 18시까지 (UTC)
5kt
시정: 8000m
고도 1000ft 상공 구름 많음
고도 2000ft 상공 구름 많음
일시적
20일 20시부터 21일 02시까지 (UTC)
북북서2kt
시정: 0200m
고도 400ft 상공 구름 많음
안개
전환 중
21일 12시부터 21일 14시까지 (UTC)
11kt
시정 10km 이상
1500m 미만 상공 구름 및 적란운 없음

TAF: SBFL 201900Z 2020/2118 09005KT 8000 BKN010 BKN020 TX15/2020Z TN12/2109Z TEMPO 2020/2102 33002KT 0200 FG BKN004 BECMG 2112/2114 35011KT CAVOK RMK PFP

4,000개 이상의 공항 관측 자료 및 예보 (METAR 및 TAF 보고).

지도상에서 검색 가능한 기상관측소가 노란 점과 빨간 점으로 표시되어 있습니다.

기상관측소 명을 보려면 표시 위로 마우스를 이동하세요.

날씨 관측과 예보를 보려면 클릭하세요.

지도 변경 : 확대하려면 엑스 표시가 있는 녹색 버튼, 축소하려면 빼기 표시가 있는 녹색 버튼, 다음 페이지의 지도를 보려면 녹색 화살표를 클릭하세요.


METAR-TAF: